Time;durP1;ratioP1;P1;durP2;ratioP2;P2;SDS_P1;SDS_P2;PMS_P1;PMS_P2;Temp;Humidity;BMP_temperature;BMP_pressure;BME280_temperature;BME280_humidity;BME280_pressure;Samples;Min_cycle;Max_cycle;Signal;HPM_P1;HPM_P2
2021/04/07 00:00:21;;;;;;;2.55;0.80;;;3.50;80.50;;;;;;4975761;28;20471;-72
2021/04/07 00:02:47;;;;;;;0.63;0.63;;;3.50;80.70;;;;;;4975091;28;20027;-72
2021/04/07 00:05:15;;;;;;;2.88;0.93;;;3.40;80.80;;;;;;4975651;28;20375;-72
2021/04/07 00:07:43;;;;;;;2.45;1.30;;;3.30;80.80;;;;;;4975423;28;20033;-72
2021/04/07 00:10:11;;;;;;;1.30;1.20;;;3.30;81.00;;;;;;4975434;28;20567;-72
2021/04/07 00:12:37;;;;;;;0.80;0.80;;;3.20;81.10;;;;;;4957380;28;20106;-72
2021/04/07 00:15:08;;;;;;;1.60;1.27;;;3.20;81.20;;;;;;4975238;28;20105;-72
2021/04/07 00:17:34;;;;;;;1.02;0.90;;;3.20;81.10;;;;;;4957517;28;20085;-73
2021/04/07 00:19:59;;;;;;;2.38;1.10;;;3.20;81.10;;;;;;4975360;28;20545;-72
2021/04/07 00:22:25;;;;;;;2.15;1.23;;;3.30;81.20;;;;;;4975368;28;20097;-72
2021/04/07 00:24:50;;;;;;;1.90;1.17;;;3.30;81.10;;;;;;4974696;28;20122;-71
2021/04/07 00:27:18;;;;;;;2.95;0.77;;;3.30;81.20;;;;;;4975044;28;20106;-72
2021/04/07 00:29:44;;;;;;;1.67;0.73;;;3.20;81.10;;;;;;4975007;28;20033;-72
2021/04/07 00:32:09;;;;;;;4.93;0.90;;;3.20;81.10;;;;;;4974830;28;20102;-72
2021/04/07 00:34:35;;;;;;;0.85;0.85;;;3.20;81.30;;;;;;4974125;28;20051;-72
2021/04/07 00:37:01;;;;;;;0.80;0.80;;;3.20;81.40;;;;;;4957492;28;20075;-73
2021/04/07 00:39:27;;;;;;;1.65;0.60;;;3.10;81.40;;;;;;4975220;28;20027;-72
2021/04/07 00:41:52;;;;;;;1.20;0.93;;;3.10;81.50;;;;;;4974236;28;20275;-72
2021/04/07 00:44:18;;;;;;;0.93;0.70;;;3.10;81.50;;;;;;4957807;28;20034;-72
2021/04/07 00:46:44;;;;;;;0.75;0.75;;;3.10;81.60;;;;;;4974399;28;20034;-72
2021/04/07 00:49:09;;;;;;;1.52;0.77;;;3.10;81.70;;;;;;4974531;28;20169;-73
2021/04/07 00:51:36;;;;;;;0.93;0.90;;;3.10;81.70;;;;;;4974140;28;20023;-73
2021/04/07 00:54:01;;;;;;;0.60;0.60;;;3.10;81.60;;;;;;4974656;28;20022;-72
2021/04/07 00:56:27;;;;;;;3.20;0.77;;;3.10;81.60;;;;;;4974286;28;20035;-72
2021/04/07 00:58:53;;;;;;;0.88;0.75;;;3.10;81.60;;;;;;4974163;28;20027;-72
2021/04/07 01:01:18;;;;;;;1.13;0.60;;;3.10;81.40;;;;;;4974708;28;20023;-72
2021/04/07 01:03:44;;;;;;;0.82;0.80;;;3.20;81.30;;;;;;4974033;28;20027;-71
2021/04/07 01:06:10;;;;;;;0.73;0.73;;;3.20;81.20;;;;;;4974176;28;20439;-71
2021/04/07 01:08:36;;;;;;;0.95;0.60;;;3.20;81.10;;;;;;4973863;28;20472;-73
2021/04/07 01:11:02;;;;;;;2.20;0.90;;;3.30;81.00;;;;;;4974374;28;20030;-72
2021/04/07 01:13:27;;;;;;;4.15;1.00;;;3.30;80.90;;;;;;4974436;28;20034;-72
2021/04/07 01:15:54;;;;;;;1.65;0.70;;;3.30;80.90;;;;;;4973418;28;20098;-71
2021/04/07 01:18:21;;;;;;;1.38;0.75;;;3.30;80.90;;;;;;4973997;28;20110;-72
2021/04/07 01:20:47;;;;;;;7.47;1.83;;;3.30;81.10;;;;;;4973706;28;20490;-72
2021/04/07 01:23:13;;;;;;;0.90;0.77;;;3.30;81.20;;;;;;4974170;28;20106;-71
2021/04/07 01:25:42;;;;;;;5.50;1.60;;;3.40;81.20;;;;;;4973810;28;20324;-71
2021/04/07 01:28:08;;;;;;;2.85;1.15;;;3.30;81.30;;;;;;4974060;28;20077;-72
2021/04/07 01:30:45;;;;;;;2.17;1.20;;;3.30;81.60;;;;;;4974002;28;20023;-73
2021/04/07 01:33:31;;;;;;;1.75;1.10;;;3.30;82.10;;;;;;4956460;28;20337;-72
2021/04/07 01:35:57;;;;;;;3.90;1.23;;;3.30;82.30;;;;;;4972943;28;20349;-69
2021/04/07 01:38:23;;;;;;;1.50;1.00;;;3.30;82.40;;;;;;4973929;28;20109;-72
2021/04/07 01:40:50;;;;;;;2.42;0.70;;;3.30;82.40;;;;;;4973310;28;20031;-71
2021/04/07 01:43:18;;;;;;;2.15;1.02;;;3.40;82.40;;;;;;4973892;28;20027;-71
2021/04/07 01:45:48;;;;;;;2.00;0.82;;;3.30;82.90;;;;;;4972787;28;20042;-72
2021/04/07 01:48:16;;;;;;;0.77;0.77;;;3.30;83.00;;;;;;4973515;28;20080;-73
2021/04/07 01:50:42;;;;;;;1.85;0.80;;;3.20;83.30;;;;;;4972755;28;20041;-72
2021/04/07 01:53:10;;;;;;;1.65;0.85;;;3.20;83.60;;;;;;4955950;28;20042;-72
2021/04/07 01:55:36;;;;;;;3.60;0.80;;;3.20;83.70;;;;;;4973825;28;20113;-72
2021/04/07 01:58:02;;;;;;;5.47;0.85;;;3.20;83.90;;;;;;4973059;28;20451;-72
2021/04/07 02:00:28;;;;;;;0.82;0.82;;;3.20;83.90;;;;;;4973409;28;20019;-73
2021/04/07 02:02:54;;;;;;;2.35;1.08;;;3.20;83.80;;;;;;4972660;28;20045;-72
2021/04/07 02:05:20;;;;;;;0.80;0.80;;;3.20;83.90;;;;;;4973154;28;20074;-72
2021/04/07 02:07:45;;;;;;;2.80;1.02;;;3.20;84.10;;;;;;4972253;28;20027;-73
2021/04/07 02:10:13;;;;;;;3.58;0.93;;;3.20;84.20;;;;;;4973473;28;20030;-73
2021/04/07 02:12:39;;;;;;;2.38;1.17;;;3.20;84.30;;;;;;4973300;28;20057;-72
2021/04/07 02:15:15;;;;;;;1.20;1.10;;;3.20;84.60;;;;;;4973075;28;20026;-72
2021/04/07 02:17:41;;;;;;;7.78;1.55;;;3.20;84.70;;;;;;4955288;28;20113;-73
2021/04/07 02:20:08;;;;;;;1.90;1.30;;;3.20;84.70;;;;;;4973172;28;20102;-71
2021/04/07 02:22:34;;;;;;;2.80;2.53;;;3.20;84.90;;;;;;4956161;28;20026;-71
2021/04/07 02:25:00;;;;;;;4.63;1.80;;;3.20;84.90;;;;;;4955294;28;20018;-71
2021/04/07 02:27:27;;;;;;;1.92;1.00;;;3.20;84.80;;;;;;4955745;28;20423;-72
2021/04/07 02:29:55;;;;;;;1.33;1.15;;;3.30;84.90;;;;;;4972418;28;20023;-72
2021/04/07 02:32:22;;;;;;;2.17;1.13;;;3.30;84.90;;;;;;4973034;28;20049;-71
2021/04/07 02:34:48;;;;;;;1.95;1.25;;;3.30;84.80;;;;;;4972718;28;20027;-72
2021/04/07 02:37:16;;;;;;;1.80;1.30;;;3.30;84.70;;;;;;4972966;28;20106;-72
2021/04/07 02:39:43;;;;;;;1.83;1.00;;;3.40;84.70;;;;;;4955649;28;20546;-74
2021/04/07 02:42:10;;;;;;;1.35;0.98;;;3.40;84.70;;;;;;4955780;28;20073;-71
2021/04/07 02:44:37;;;;;;;1.33;1.00;;;3.40;84.60;;;;;;4955817;28;20046;-72
2021/04/07 02:47:03;;;;;;;2.60;1.23;;;3.40;84.70;;;;;;4972274;28;20254;-72
2021/04/07 02:49:29;;;;;;;1.75;1.10;;;3.50;84.80;;;;;;4972685;28;20023;-72
2021/04/07 02:51:55;;;;;;;4.22;1.10;;;3.50;84.70;;;;;;4972148;28;20026;-71
2021/04/07 02:54:21;;;;;;;1.60;1.02;;;3.50;84.80;;;;;;4973056;28;20019;-72
2021/04/07 02:56:47;;;;;;;2.45;1.02;;;3.40;85.00;;;;;;4972152;28;20038;-70
2021/04/07 02:59:13;;;;;;;1.00;0.80;;;3.40;85.60;;;;;;4972830;28;20031;-72
2021/04/07 03:01:38;;;;;;;1.02;0.93;;;3.30;85.80;;;;;;4972808;28;20027;-72
2021/04/07 03:04:04;;;;;;;5.20;0.95;;;3.20;86.80;;;;;;4972196;28;20027;-71
2021/04/07 03:06:30;;;;;;;1.27;1.00;;;3.20;86.60;;;;;;4972890;28;20046;-71
2021/04/07 03:08:56;;;;;;;1.58;0.90;;;3.20;87.00;;;;;;4972214;28;20023;-71
2021/04/07 03:11:22;;;;;;;0.60;0.60;;;3.20;87.30;;;;;;4979797;28;20022;-71
2021/04/07 03:13:48;;;;;;;1.00;0.88;;;3.20;87.50;;;;;;4991305;28;20475;-71
2021/04/07 03:16:13;;;;;;;1.25;0.90;;;3.10;87.50;;;;;;4974087;28;20037;-72
2021/04/07 03:18:39;;;;;;;5.60;1.33;;;3.10;87.80;;;;;;4994147;28;20033;-71
2021/04/07 03:21:05;;;;;;;1.17;0.85;;;3.00;88.10;;;;;;4995268;28;20347;-72
2021/04/07 03:23:31;;;;;;;1.92;1.25;;;3.00;88.90;;;;;;4996000;28;20057;-72
2021/04/07 03:25:56;;;;;;;1.13;1.05;;;2.90;88.90;;;;;;4995184;28;20157;-72
2021/04/07 03:28:23;;;;;;;2.10;0.98;;;2.90;89.10;;;;;;4995847;28;20029;-72
2021/04/07 03:30:50;;;;;;;0.98;0.95;;;2.90;88.80;;;;;;4994825;28;20022;-72
2021/04/07 03:33:20;;;;;;;2.78;1.20;;;3.00;88.70;;;;;;4995366;28;20442;-73
2021/04/07 03:35:47;;;;;;;1.27;1.13;;;3.10;88.40;;;;;;4995595;28;20528;-72
2021/04/07 03:38:13;;;;;;;3.10;1.48;;;3.10;88.20;;;;;;4995990;28;20023;-71
2021/04/07 03:40:39;;;;;;;3.28;0.88;;;3.10;88.00;;;;;;4995488;28;20077;-71
2021/04/07 03:43:10;;;;;;;2.10;1.23;;;3.20;88.40;;;;;;4995168;28;20026;-72
2021/04/07 03:45:37;;;;;;;2.13;1.20;;;3.20;88.50;;;;;;4977935;28;20046;-71
2021/04/07 03:48:03;;;;;;;2.42;1.10;;;3.20;88.60;;;;;;4994909;28;20031;-72
2021/04/07 03:50:29;;;;;;;1.13;0.85;;;3.20;88.50;;;;;;4977844;28;20491;-72
2021/04/07 03:52:55;;;;;;;3.70;1.67;;;3.20;88.70;;;;;;4994809;28;20027;-70
2021/04/07 03:55:20;;;;;;;2.45;1.05;;;3.10;89.20;;;;;;4994933;28;20023;-73
2021/04/07 03:57:46;;;;;;;3.83;0.80;;;3.10;89.60;;;;;;4995402;28;20046;-72
2021/04/07 04:00:13;;;;;;;3.05;0.90;;;3.10;89.60;;;;;;4994933;28;20513;-70
2021/04/07 04:02:39;;;;;;;3.63;1.08;;;3.10;89.60;;;;;;4977651;28;20065;-71
2021/04/07 04:05:05;;;;;;;3.67;0.95;;;3.10;89.60;;;;;;4994459;28;20420;-70
2021/04/07 04:07:30;;;;;;;0.88;0.75;;;3.20;89.80;;;;;;4994962;28;20026;-71
2021/04/07 04:09:56;;;;;;;2.20;1.00;;;3.10;89.80;;;;;;4994216;28;20030;-73
2021/04/07 04:12:22;;;;;;;0.98;0.80;;;3.10;90.00;;;;;;4995526;28;20034;-72
2021/04/07 04:14:47;;;;;;;1.58;0.93;;;3.00;90.30;;;;;;4994990;28;20471;-72
2021/04/07 04:17:13;;;;;;;1.75;0.93;;;3.00;90.10;;;;;;4988349;28;20077;-73
2021/04/07 04:19:38;;;;;;;0.95;0.90;;;3.00;90.20;;;;;;4984600;28;20498;-72
2021/04/07 04:22:04;;;;;;;1.48;1.10;;;2.90;90.30;;;;;;4993464;28;20479;-72
2021/04/07 04:24:31;;;;;;;4.97;1.08;;;2.90;90.30;;;;;;4994370;28;20027;-72
2021/04/07 04:26:57;;;;;;;2.05;1.00;;;2.90;90.40;;;;;;4993373;28;20026;-73
2021/04/07 04:29:23;;;;;;;3.35;0.95;;;2.90;90.30;;;;;;4975958;28;20125;-73
2021/04/07 04:31:48;;;;;;;1.42;0.82;;;2.90;90.40;;;;;;4994258;28;20026;-73
2021/04/07 04:34:14;;;;;;;1.63;1.20;;;2.90;90.50;;;;;;4993096;28;20442;-73
2021/04/07 04:36:40;;;;;;;2.22;1.30;;;2.80;90.80;;;;;;4994052;28;20367;-73
2021/04/07 04:39:05;;;;;;;3.50;1.40;;;2.80;91.00;;;;;;4994207;28;20022;-73
2021/04/07 04:41:31;;;;;;;0.82;0.82;;;2.70;91.20;;;;;;4994487;28;20025;-72
2021/04/07 04:43:57;;;;;;;1.45;0.95;;;2.70;91.20;;;;;;4993766;28;20088;-71
2021/04/07 04:46:22;;;;;;;4.15;1.70;;;2.70;91.20;;;;;;4994510;28;20076;-73
2021/04/07 04:48:48;;;;;;;1.65;1.10;;;2.70;91.20;;;;;;4976818;28;20014;-74
2021/04/07 04:51:13;;;;;;;4.15;0.90;;;2.80;91.40;;;;;;4993696;28;20459;-74
2021/04/07 04:53:39;;;;;;;1.52;0.80;;;2.70;91.40;;;;;;4993973;28;20387;-73
2021/04/07 04:56:05;;;;;;;0.90;0.85;;;2.80;91.40;;;;;;4976088;28;20034;-73
2021/04/07 04:58:31;;;;;;;0.77;0.73;;;2.80;91.40;;;;;;4994102;28;20031;-72
2021/04/07 05:00:58;;;;;;;1.17;0.98;;;2.80;91.50;;;;;;4990491;28;20328;-75
2021/04/07 05:03:24;;;;;;;1.30;0.98;;;2.80;91.50;;;;;;4974313;28;20026;-76
2021/04/07 05:05:49;;;;;;;1.77;0.98;;;2.90;91.60;;;;;;4974413;28;20161;-76
2021/04/07 05:08:15;;;;;;;1.55;1.27;;;2.90;91.60;;;;;;4990988;28;20475;-76
2021/04/07 05:10:41;;;;;;;3.00;1.00;;;2.90;91.60;;;;;;4992126;28;20030;-76
2021/04/07 05:13:06;;;;;;;2.45;0.90;;;2.90;91.60;;;;;;4990856;28;20018;-76
2021/04/07 05:15:32;;;;;;;2.28;1.48;;;2.90;91.60;;;;;;4991482;28;20367;-76
2021/04/07 05:17:57;;;;;;;1.13;0.90;;;2.90;91.70;;;;;;4990763;28;20030;-76
2021/04/07 05:20:23;;;;;;;1.98;1.02;;;2.90;91.70;;;;;;4973718;28;20054;-75
2021/04/07 05:22:49;;;;;;;1.48;1.27;;;2.80;91.80;;;;;;4991185;28;20081;-74
2021/04/07 05:25:14;;;;;;;2.75;1.13;;;2.80;92.00;;;;;;4990514;28;20253;-76
2021/04/07 05:27:40;;;;;;;0.70;0.70;;;2.80;92.10;;;;;;4991518;28;20038;-76
2021/04/07 05:30:08;;;;;;;2.80;1.25;;;2.80;92.10;;;;;;4973149;28;20101;-76
2021/04/07 05:32:34;;;;;;;0.98;0.80;;;2.80;92.20;;;;;;4973497;28;20398;-76
2021/04/07 05:35:00;;;;;;;2.40;1.35;;;2.80;92.20;;;;;;4990467;28;20022;-76
2021/04/07 05:37:26;;;;;;;1.58;1.02;;;2.80;92.20;;;;;;4991148;28;20049;-76
2021/04/07 05:39:51;;;;;;;1.80;1.10;;;2.90;92.20;;;;;;4992083;28;20062;-73
2021/04/07 05:42:17;;;;;;;2.80;1.20;;;2.90;92.20;;;;;;4991346;28;20082;-74
2021/04/07 05:44:43;;;;;;;1.80;1.05;;;3.00;92.20;;;;;;4992614;28;20026;-74
2021/04/07 05:47:08;;;;;;;4.72;1.50;;;2.90;92.10;;;;;;4974931;28;20109;-73
2021/04/07 05:49:34;;;;;;;2.50;1.33;;;3.00;92.20;;;;;;4993081;28;20019;-73
2021/04/07 05:52:00;;;;;;;1.95;1.40;;;3.10;92.20;;;;;;4992578;28;20026;-73
2021/04/07 05:54:25;;;;;;;3.00;1.20;;;3.00;92.10;;;;;;4993037;28;20105;-73
2021/04/07 05:56:51;;;;;;;4.68;1.27;;;3.10;92.10;;;;;;4992919;28;20030;-73
2021/04/07 05:59:16;;;;;;;1.70;1.27;;;3.20;92.10;;;;;;4992351;28;20200;-73
2021/04/07 06:01:42;;;;;;;1.45;1.00;;;3.20;92.10;;;;;;4993093;28;20235;-73
2021/04/07 06:04:08;;;;;;;1.63;1.23;;;3.20;92.10;;;;;;4992309;28;20026;-73
2021/04/07 06:06:33;;;;;;;1.73;1.15;;;3.20;92.10;;;;;;4992865;28;20033;-72
2021/04/07 06:08:59;;;;;;;1.55;1.02;;;3.10;92.20;;;;;;4974697;28;20153;-73
2021/04/07 06:11:25;;;;;;;2.60;1.10;;;3.00;92.50;;;;;;4992641;28;20085;-73
2021/04/07 06:13:50;;;;;;;2.20;0.98;;;3.00;92.60;;;;;;4992604;28;20431;-73
2021/04/07 06:16:16;;;;;;;2.97;1.25;;;2.90;92.40;;;;;;4991968;28;20064;-73
2021/04/07 06:18:43;;;;;;;3.65;1.80;;;3.00;92.50;;;;;;4975053;28;20037;-73
2021/04/07 06:21:09;;;;;;;2.22;1.13;;;3.00;92.50;;;;;;4991888;28;20109;-73
2021/04/07 06:23:34;;;;;;;2.97;1.52;;;3.00;92.50;;;;;;4992591;28;20436;-74
2021/04/07 06:26:00;;;;;;;5.28;1.70;;;3.00;92.50;;;;;;4991710;28;20026;-75
2021/04/07 06:28:26;;;;;;;1.35;1.25;;;3.00;92.50;;;;;;4992612;28;20022;-73
2021/04/07 06:30:51;;;;;;;3.00;1.52;;;3.10;92.50;;;;;;4992647;28;20077;-73
2021/04/07 06:33:32;;;;;;;5.63;1.63;;;3.20;92.50;;;;;;4991538;28;20162;-73
2021/04/07 06:36:03;;;;;;;3.97;1.90;;;3.30;92.50;;;;;;4975033;28;20034;-73
2021/04/07 06:38:30;;;;;;;2.83;1.58;;;3.30;92.50;;;;;;4992495;28;20049;-73
2021/04/07 06:40:57;;;;;;;2.17;1.45;;;3.30;92.40;;;;;;4992315;28;20049;-73
2021/04/07 06:43:25;;;;;;;3.67;1.38;;;3.40;92.40;;;;;;4974262;28;20033;-73
2021/04/07 06:45:51;;;;;;;2.95;1.40;;;3.40;92.40;;;;;;4992301;28;20031;-74
2021/04/07 06:48:18;;;;;;;3.05;1.55;;;3.50;92.50;;;;;;4991549;28;20097;-73
2021/04/07 06:50:46;;;;;;;3.70;1.45;;;3.50;92.50;;;;;;4992255;28;20023;-75
2021/04/07 06:53:12;;;;;;;2.45;1.10;;;3.50;92.50;;;;;;4993078;28;20033;-74
2021/04/07 06:55:39;;;;;;;2.30;1.40;;;3.60;92.50;;;;;;4996279;28;20064;-72
2021/04/07 06:58:06;;;;;;;3.22;1.77;;;3.60;92.50;;;;;;4995394;28;20383;-74
2021/04/07 07:00:32;;;;;;;2.88;1.38;;;3.70;92.60;;;;;;4995829;28;20478;-73
2021/04/07 07:03:18;;;;;;;8.82;1.73;;;3.70;92.60;;;;;;4978568;28;20052;-72
2021/04/07 07:05:51;;;;;;;1.42;1.08;;;3.80;92.60;;;;;;4995835;28;20105;-73
2021/04/07 07:08:18;;;;;;;2.20;1.48;;;3.80;92.70;;;;;;4977910;28;20019;-73
2021/04/07 07:10:46;;;;;;;2.22;1.23;;;3.80;92.80;;;;;;4995767;28;20022;-74
2021/04/07 07:13:17;;;;;;;3.00;1.75;;;3.90;92.80;;;;;;4995474;28;20022;-73
2021/04/07 07:15:42;;;;;;;4.95;1.55;;;4.00;92.70;;;;;;4996206;28;20062;-73
2021/04/07 07:18:08;;;;;;;3.03;1.70;;;4.10;93.00;;;;;;4977789;28;20056;-73
2021/04/07 07:20:39;;;;;;;2.63;1.50;;;4.20;92.60;;;;;;4995870;28;20470;-73
2021/04/07 07:23:04;;;;;;;4.70;1.60;;;4.30;92.60;;;;;;4995318;28;20022;-73
2021/04/07 07:25:30;;;;;;;2.50;1.55;;;4.40;92.60;;;;;;4978426;28;20030;-74
2021/04/07 07:28:04;;;;;;;3.25;1.25;;;4.40;92.60;;;;;;4978223;28;20030;-73
2021/04/07 07:30:42;;;;;;;6.60;1.90;;;4.50;92.60;;;;;;4978562;28;20027;-73
2021/04/07 07:33:21;;;;;;;5.05;1.30;;;4.60;92.60;;;;;;4994686;28;20046;-74
2021/04/07 07:35:52;;;;;;;1.80;1.27;;;4.60;92.70;;;;;;4995910;28;20069;-73
2021/04/07 07:38:23;;;;;;;7.28;1.98;;;4.70;92.60;;;;;;4994934;28;20030;-74
2021/04/07 07:40:57;;;;;;;3.47;1.20;;;4.70;92.60;;;;;;4995468;28;20101;-74
2021/04/07 07:43:22;;;;;;;3.65;1.23;;;4.80;92.60;;;;;;4994630;28;20100;-73
2021/04/07 07:45:48;;;;;;;2.53;1.17;;;4.80;92.60;;;;;;4995601;28;20470;-73
2021/04/07 07:48:19;;;;;;;1.98;1.40;;;4.90;92.60;;;;;;4977237;28;20476;-73
2021/04/07 07:50:47;;;;;;;2.03;1.20;;;4.90;92.90;;;;;;4995581;28;20019;-74
2021/04/07 07:53:14;;;;;;;3.22;1.40;;;5.00;92.70;;;;;;4994591;28;20022;-74
2021/04/07 07:55:40;;;;;;;3.25;1.50;;;5.10;92.70;;;;;;4995081;28;20080;-73
2021/04/07 07:58:07;;;;;;;2.30;0.95;;;5.10;92.70;;;;;;4995061;28;20076;-73
2021/04/07 08:00:33;;;;;;;0.90;0.90;;;5.10;92.80;;;;;;4995077;28;20025;-73
2021/04/07 08:03:15;;;;;;;2.08;0.90;;;5.20;92.90;;;;;;4995051;28;20053;-73
2021/04/07 08:05:43;;;;;;;5.50;0.95;;;5.20;92.90;;;;;;4993533;28;20430;-73
2021/04/07 08:08:10;;;;;;;2.88;0.90;;;5.20;93.10;;;;;;4994271;28;20106;-73
2021/04/07 08:10:37;;;;;;;2.97;0.80;;;5.30;93.10;;;;;;4994819;28;20023;-73
2021/04/07 08:13:10;;;;;;;2.10;0.98;;;5.40;93.10;;;;;;4994424;28;20491;-74
2021/04/07 08:15:37;;;;;;;3.00;1.00;;;5.40;93.00;;;;;;4994806;28;20031;-74
2021/04/07 08:18:05;;;;;;;0.88;0.68;;;5.50;93.10;;;;;;4994920;28;20022;-74
2021/04/07 08:20:31;;;;;;;2.38;0.75;;;5.60;93.10;;;;;;4994175;28;20026;-74
2021/04/07 08:22:58;;;;;;;0.70;0.70;;;5.60;93.10;;;;;;4994536;28;20029;-72
2021/04/07 08:25:25;;;;;;;2.78;0.90;;;5.70;93.00;;;;;;4994004;28;20105;-74
2021/04/07 08:27:54;;;;;;;2.10;0.75;;;5.80;93.00;;;;;;4994844;28;20074;-72
2021/04/07 08:30:23;;;;;;;2.50;1.02;;;5.80;93.00;;;;;;4993961;28;20098;-74
2021/04/07 08:32:51;;;;;;;1.80;0.93;;;5.80;93.00;;;;;;4994297;28;20088;-73
2021/04/07 08:35:19;;;;;;;3.97;0.90;;;5.70;93.10;;;;;;4993560;28;20374;-74
2021/04/07 08:38:00;;;;;;;4.22;1.33;;;5.60;93.30;;;;;;4994352;28;20105;-73
2021/04/07 08:40:36;;;;;;;0.85;0.85;;;5.60;93.50;;;;;;4993778;28;20053;-73
2021/04/07 08:43:03;;;;;;;5.10;1.58;;;5.60;93.60;;;;;;4994309;28;20109;-73
2021/04/07 08:45:46;;;;;;;4.13;1.00;;;5.60;93.70;;;;;;4993525;28;20038;-74
2021/04/07 08:48:21;;;;;;;1.42;0.50;;;5.60;93.70;;;;;;4993762;28;20085;-72
2021/04/07 08:51:03;;;;;;;1.85;0.85;;;5.70;93.70;;;;;;4994235;28;20049;-74
2021/04/07 08:53:36;;;;;;;0.80;0.65;;;5.70;93.80;;;;;;4993579;28;20022;-73
2021/04/07 08:56:07;;;;;;;1.35;0.98;;;5.80;93.80;;;;;;4993770;28;20097;-73
2021/04/07 08:58:34;;;;;;;5.05;1.13;;;5.90;93.80;;;;;;4975932;28;20027;-74
2021/04/07 09:01:00;;;;;;;8.02;1.40;;;5.90;93.80;;;;;;4994277;28;20466;-74
2021/04/07 09:03:30;;;;;;;3.28;1.50;;;6.10;93.70;;;;;;4993106;28;20101;-74
2021/04/07 09:05:56;;;;;;;4.45;1.67;;;6.20;93.60;;;;;;4994041;28;20061;-74
2021/04/07 09:08:26;;;;;;;7.07;1.50;;;6.40;93.60;;;;;;4993173;28;20019;-73
2021/04/07 09:10:57;;;;;;;6.72;1.52;;;6.40;93.50;;;;;;4993475;28;20063;-73
2021/04/07 09:13:24;;;;;;;13.25;2.78;;;6.50;93.50;;;;;;4992750;28;20482;-73
2021/04/07 09:16:04;;;;;;;10.45;2.45;;;6.60;93.70;;;;;;4975989;28;20412;-74
2021/04/07 09:18:41;;;;;;;10.40;1.83;;;6.60;93.40;;;;;;4993146;28;20093;-73
2021/04/07 09:21:18;;;;;;;2.55;1.10;;;6.60;93.30;;;;;;4993722;28;20022;-73
2021/04/07 09:23:55;;;;;;;3.78;1.52;;;6.70;93.40;;;;;;4993631;28;20023;-72
2021/04/07 09:26:24;;;;;;;4.97;1.55;;;6.80;93.30;;;;;;4992505;28;20332;-74
2021/04/07 09:28:52;;;;;;;2.05;0.90;;;6.80;93.30;;;;;;4993959;28;20018;-73
2021/04/07 09:31:18;;;;;;;5.22;1.70;;;6.90;93.20;;;;;;4975596;28;20026;-74
2021/04/07 09:33:47;;;;;;;4.38;1.73;;;6.90;93.10;;;;;;4993199;28;20185;-74
2021/04/07 09:36:13;;;;;;;5.55;1.58;;;7.00;93.20;;;;;;4993200;28;20034;-73
2021/04/07 09:38:47;;;;;;;6.18;1.70;;;7.10;93.00;;;;;;4992934;28;20374;-73
2021/04/07 09:41:17;;;;;;;5.38;1.42;;;7.20;93.00;;;;;;4993356;28;20136;-72
2021/04/07 09:43:43;;;;;;;5.00;1.40;;;7.20;93.00;;;;;;4992936;28;20033;-73
2021/04/07 09:46:09;;;;;;;6.85;2.30;;;7.30;92.90;;;;;;4975545;28;20030;-73
2021/04/07 09:48:35;;;;;;;8.15;2.00;;;7.50;92.70;;;;;;4992574;28;20061;-73
2021/04/07 09:51:00;;;;;;;3.70;1.17;;;7.50;92.60;;;;;;4993181;28;20064;-72
2021/04/07 09:53:29;;;;;;;3.22;1.15;;;7.50;92.70;;;;;;4992445;28;20102;-73
2021/04/07 09:56:01;;;;;;;7.43;2.35;;;7.50;92.80;;;;;;4992674;28;20034;-73
2021/04/07 09:58:27;;;;;;;6.07;1.60;;;7.60;92.70;;;;;;4992374;28;20027;-73
2021/04/07 10:00:55;;;;;;;7.00;1.25;;;7.50;92.10;;;;;;4993438;28;20026;-72
2021/04/07 10:03:21;;;;;;;4.63;1.20;;;7.20;92.30;;;;;;4992321;28;20106;-73
2021/04/07 10:05:47;;;;;;;10.65;1.55;;;6.90;92.90;;;;;;4992977;28;20034;-72
2021/04/07 10:08:17;;;;;;;7.78;1.70;;;6.70;93.20;;;;;;4992552;28;20023;-74
2021/04/07 10:10:43;;;;;;;6.38;2.13;;;6.50;93.40;;;;;;4992861;28;20031;-72
2021/04/07 10:13:09;;;;;;;3.97;1.13;;;6.40;93.80;;;;;;4992617;28;20077;-72
2021/04/07 10:15:37;;;;;;;10.10;2.35;;;6.30;93.90;;;;;;4991620;28;20479;-72
2021/04/07 10:18:07;;;;;;;2.17;1.27;;;6.30;94.00;;;;;;4992513;28;20022;-72
2021/04/07 10:20:33;;;;;;;7.57;1.48;;;6.30;94.00;;;;;;4974428;28;20382;-72
2021/04/07 10:22:59;;;;;;;4.47;2.78;;;6.30;94.10;;;;;;4992142;28;20489;-73
2021/04/07 10:25:27;;;;;;;3.47;1.60;;;6.30;94.30;;;;;;4991896;28;20105;-72
2021/04/07 10:27:52;;;;;;;6.47;1.40;;;6.30;94.30;;;;;;4991866;28;20134;-72
2021/04/07 10:30:20;;;;;;;5.80;2.05;;;6.40;94.30;;;;;;4991821;28;20460;-74
2021/04/07 10:32:53;;;;;;;8.40;2.20;;;6.60;94.10;;;;;;4992297;28;20508;-72
2021/04/07 10:35:26;;;;;;;1.67;1.25;;;6.70;94.00;;;;;;4974315;28;20370;-74
2021/04/07 10:37:53;;;;;;;4.78;1.30;;;6.80;93.90;;;;;;4974673;28;20042;-72
2021/04/07 10:40:20;;;;;;;6.20;1.40;;;6.90;93.70;;;;;;4991636;28;20034;-73
2021/04/07 10:42:46;;;;;;;3.45;0.95;;;6.90;93.70;;;;;;4992000;28;20479;-72
2021/04/07 10:45:12;;;;;;;9.00;1.48;;;7.00;93.60;;;;;;4974779;28;20032;-72
2021/04/07 10:47:38;;;;;;;5.65;0.75;;;7.00;93.60;;;;;;4991302;28;20041;-73
2021/04/07 10:50:06;;;;;;;4.95;1.60;;;7.10;93.40;;;;;;4992134;28;20022;-73
2021/04/07 10:52:42;;;;;;;6.93;1.80;;;7.30;93.30;;;;;;4991230;28;20308;-73
2021/04/07 10:55:24;;;;;;;7.50;1.30;;;7.50;93.00;;;;;;4992243;28;20058;-73
2021/04/07 10:57:53;;;;;;;5.00;1.70;;;7.70;92.90;;;;;;4991901;28;20394;-72
2021/04/07 11:00:28;;;;;;;8.30;1.92;;;7.60;92.60;;;;;;4991902;28;20064;-72
2021/04/07 11:02:54;;;;;;;8.70;2.10;;;7.40;92.10;;;;;;4992131;28;20054;-73
2021/04/07 11:05:21;;;;;;;5.82;1.58;;;7.10;92.50;;;;;;4958326;28;20034;-74
2021/04/07 11:07:58;;;;;;;4.50;1.30;;;6.80;92.90;;;;;;4992083;28;20031;-74
2021/04/07 11:10:23;;;;;;;5.00;1.73;;;6.60;93.40;;;;;;4991564;28;20034;-72
2021/04/07 11:12:49;;;;;;;5.80;1.30;;;6.40;93.80;;;;;;4991778;28;20022;-73
2021/04/07 11:15:15;;;;;;;2.25;1.15;;;6.50;94.00;;;;;;4992074;28;20129;-72
2021/04/07 11:17:54;;;;;;;4.72;1.70;;;6.60;94.00;;;;;;4991253;28;20560;-72
2021/04/07 11:20:21;;;;;;;5.85;2.00;;;6.80;93.90;;;;;;4991836;28;20058;-73
2021/04/07 11:22:47;;;;;;;5.70;1.48;;;6.90;93.60;;;;;;4992031;28;20023;-73
2021/04/07 11:25:14;;;;;;;3.85;1.88;;;7.00;93.60;;;;;;4991936;28;20481;-73
2021/04/07 11:27:39;;;;;;;4.63;1.58;;;7.10;93.40;;;;;;4991240;28;20084;-72
2021/04/07 11:30:06;;;;;;;6.13;3.17;;;7.10;93.20;;;;;;4991754;28;20022;-73
2021/04/07 11:32:35;;;;;;;7.15;2.17;;;7.10;93.30;;;;;;4991038;28;20070;-73
2021/04/07 11:37:52;;;;;;;6.85;1.83;;;7.10;93.10;;;;;;4991302;28;20638;-72
2021/04/07 11:45:32;;;;;;;4.68;1.00;;;6.60;93.40;;;;;;4994477;28;19906;-73
2021/04/07 11:47:58;;;;;;;6.32;1.02;;;6.60;93.80;;;;;;4995374;28;20030;-73
2021/04/07 11:50:24;;;;;;;4.82;0.85;;;6.70;93.80;;;;;;4995124;28;20030;-73
2021/04/07 11:52:50;;;;;;;3.65;1.00;;;6.80;93.80;;;;;;4994960;28;20022;-73
2021/04/07 11:55:15;;;;;;;4.40;0.90;;;7.00;93.60;;;;;;4995421;28;20034;-72
2021/04/07 11:57:41;;;;;;;1.85;1.17;;;7.20;93.40;;;;;;4994231;28;20038;-73
2021/04/07 12:00:09;;;;;;;5.18;1.15;;;7.30;93.10;;;;;;4995161;28;20019;-72
2021/04/07 12:02:37;;;;;;;5.30;1.27;;;7.40;92.80;;;;;;4994438;28;20019;-73
2021/04/07 12:05:03;;;;;;;5.00;1.40;;;7.60;92.60;;;;;;4995083;28;20451;-73
2021/04/07 12:07:28;;;;;;;6.03;1.30;;;7.60;92.50;;;;;;4994681;28;20031;-72
2021/04/07 12:09:54;;;;;;;5.25;1.60;;;7.60;91.60;;;;;;4977323;28;20029;-72
2021/04/07 12:12:20;;;;;;;7.68;2.05;;;7.50;92.20;;;;;;4994933;28;20146;-73
2021/04/07 12:14:45;;;;;;;4.63;1.55;;;7.40;92.20;;;;;;4993962;28;20049;-73
2021/04/07 12:17:11;;;;;;;2.95;1.17;;;7.20;92.30;;;;;;4995144;28;20458;-73
2021/04/07 12:19:37;;;;;;;2.83;1.67;;;7.20;92.60;;;;;;4994284;28;20024;-73
2021/04/07 12:22:02;;;;;;;5.13;1.67;;;7.20;92.60;;;;;;4995151;28;20023;-73
2021/04/07 12:24:29;;;;;;;8.43;1.98;;;7.20;92.50;;;;;;4994105;28;20036;-72
2021/04/07 12:26:55;;;;;;;9.93;1.92;;;7.20;92.40;;;;;;4994875;28;20030;-73
2021/04/07 12:29:22;;;;;;;5.93;1.40;;;7.20;92.00;;;;;;4994357;28;20019;-72
2021/04/07 12:31:48;;;;;;;6.40;2.55;;;7.10;91.90;;;;;;4993915;28;20105;-72
2021/04/07 12:34:14;;;;;;;9.43;2.05;;;7.20;91.60;;;;;;4976578;28;20137;-73
2021/04/07 12:36:40;;;;;;;1.30;0.85;;;7.10;90.80;;;;;;4976243;28;20034;-72
2021/04/07 12:39:06;;;;;;;1.42;0.90;;;7.00;90.50;;;;;;4994622;28;20030;-72
2021/04/07 12:41:56;;;;;;;3.28;0.88;;;7.00;90.30;;;;;;4993854;28;20023;-72
2021/04/07 12:44:18;;;;;;;3.10;1.20;;;7.10;90.80;;;;;;4993738;28;20391;-72
2021/04/07 12:46:43;;;;;;;3.63;1.33;;;7.20;90.70;;;;;;4993359;28;20474;-72
2021/04/07 12:49:09;;;;;;;2.60;1.08;;;7.30;90.00;;;;;;4976866;28;20022;-72
2021/04/07 12:51:35;;;;;;;3.55;0.98;;;7.30;90.00;;;;;;4992922;28;20033;-72
2021/04/07 12:54:01;;;;;;;3.75;1.63;;;7.40;89.30;;;;;;4994508;28;20117;-73
2021/04/07 12:56:28;;;;;;;1.83;0.98;;;7.50;88.40;;;;;;4994283;28;20038;-72
2021/04/07 12:58:54;;;;;;;3.70;1.27;;;7.60;88.60;;;;;;4993747;28;20352;-72
2021/04/07 13:01:20;;;;;;;10.18;2.17;;;7.70;88.50;;;;;;4994175;28;20029;-73
2021/04/07 13:03:46;;;;;;;2.65;1.25;;;7.80;85.90;;;;;;4975854;28;20026;-74
2021/04/07 13:06:11;;;;;;;6.10;1.17;;;7.90;85.80;;;;;;4976312;28;20434;-74